• Join FlightAware (Why Join?)
  • Login
  • US Flag 
08:15AM EDT


 

Airport Tracker/Info


-or-


 

Live Flight TrackerFlight Track Log ✈ EJA831 ✈ 22-Jun-2013 ✈ KLCI - KBTV

Flight Track Log - Related Links

Times and Time Zones

All times are in EDT time to prevent confusion due to time zone crossing. See the EJA831 flight status page for this flight to view local times or setup timezone preferences in your user account.

Time Position Orientation Groundspeed Altitude Reporting Facility
EDT Latitude Longitude Course Direction KTS MPH feet Rate Location/Type
03:52PM 43.5911 -71.5514 281° West 224 258 7,000  Level Boston Center
03:53PM 43.6292 -71.6283 304° West 253 291 9,900 1,500 Climbing Boston Center
03:54PM 43.6842 -71.7367 305° West 299 344 10,000  Climbing Boston Center
03:55PM 43.7347 -71.8339 306° West 313 360 10,000  Level Boston Center
03:56PM 43.7850 -71.9339 305° West 318 366 10,000  Level Boston Center
03:57PM 43.8333 -72.0314 305° West 318 366 10,000  Level Boston Center
03:58PM 43.8817 -72.1289 305° West 318 366 10,000  Level Boston Center
03:59PM 43.9297 -72.2239 305° West 313 360 10,000  Level Boston Center
04:00PM 43.9736 -72.3219 302° West 305 351 10,000 -480 Level Boston Center
04:01PM 44.0133 -72.4025 304° West 300 345 9,100 -1,200 Descending Boston Center
04:02PM 44.0572 -72.4892 305° West 290 334 7,600 -1,080 Descending Boston Center
04:03PM 44.0986 -72.5758 304° West 279 321 7,000 -300 Descending Boston Center
04:04PM 44.1403 -72.6600 305° West 274 315 7,000  Level Boston Center
04:05PM 44.1839 -72.7469 305° West 274 315 7,000  Level Boston Center
04:06PM 44.2169 -72.8167 304° West 280 322 7,000 -420 Level Boston Center
04:07PM 44.2561 -72.9242 297° West 270 311 6,200 -540 Descending Boston Center
04:08PM 44.2786 -73.0169 289° West 254 292 6,000 -120 Descending Boston Center
04:09PM 44.3008 -73.1247 286° West 254 292 6,000 -480 Level Boston Center
04:10PM 44.3525 -73.1950 316° Northwest 253 291 5,100 -1,200 Descending Boston Center
04:11PM 44.4042 -73.2625 317° Northwest 253 291 3,700 -1,080 Descending Boston Center
04:12PM 44.4536 -73.3328 315° West 258 297 3,000 -360 Descending Boston Center
04:13PM 44.5011 -73.3947 317° Northwest 258 297 3,000 -420 Level Boston Center
04:14PM 44.5619 -73.3578 23° Northeast 191 220 2,200 -420 Descending Boston Center
04:15PM 44.5500 -73.2819 102° East 113 130 2,200  Level Boston Center